Gentleman — WTA9437 — position and weather

sailwx.info

Track history (hours):
 
Tides and Currents Weather Stations Pressure Air Temp Water Temp Dewpoint Dewpoint Depression Visibility Wind Speed Wind Dir Waves Ship Positions

Gentleman

Owner: CHANNEL ISLAND SPORTFISHING, OXNARD, CA. More information available from US FCC via Universal Licensing System and Coast Guard Vessel Documentation Center.

Last reported at 2018-Apr-23 18:19 UTC. Time now 2018-Apr-23 23:27 UTC.
Position N 34°10' W 119°13'.

Length 20 m.

Type: Passenger vessel. MMSI: 367362110.

Date/timePositionNaut miles runAvg speedWind from/ knotsBaromVisibWave heightAir tempDewpointWater temp
2018-Apr-23 18:19N 34°10' W 119°13'0 0.0
2018-Apr-23 16:27N 34°10' W 119°13'0 0.0
2018-Apr-23 14:00N 34°10' W 119°13'0 0.0
2018-Apr-23 13:27N 34°10' W 119°13'0 0.0
2018-Apr-22 23:00N 34°10' W 119°13'1 2.5
2018-Apr-22 22:29N 34°09' W 119°13'4 7.5
2018-Apr-22 22:00N 34°06' W 119°10'4 7.3
2018-Apr-22 21:28N 34°04' W 119°06'6 4.1
2018-Apr-22 20:04N 34°00' W 119°00'1 0.3
2018-Apr-22 17:25N 33°60' W 119°01'2 2.0
2018-Apr-22 16:29N 34°00' W 119°03'0 0.5
2018-Apr-22 15:54N 33°60' W 119°03'0 0.2
2018-Apr-22 14:45N 33°60' W 119°03'5 7.6
2018-Apr-22 14:08N 34°03' W 119°07'2 8.4
2018-Apr-22 13:51N 34°05' W 119°09'3 8.6
2018-Apr-22 13:30N 34°07' W 119°12'3 0.4
2018-Apr-22 05:29N 34°10' W 119°13'0 0.0
2018-Apr-22 04:56N 34°10' W 119°13'0 0.0
2018-Apr-22 04:11N 34°10' W 119°13'0 0.0
2018-Apr-22 03:53N 34°10' W 119°13'0 0.0
2018-Apr-22 02:20N 34°10' W 119°13'0 0.0
2018-Apr-21 23:17N 34°10' W 119°13'0 0.0
2018-Apr-21 22:56N 34°10' W 119°13'0 0.0
2018-Apr-21 22:29N 34°10' W 119°13'0 0.0
2018-Apr-21 21:24N 34°10' W 119°13'3 5.3
2018-Apr-21 20:46N 34°07' W 119°11'9 1.4
2018-Apr-21 14:38N 34°01' W 119°04'1 8.3
2018-Apr-21 14:29N 34°01' W 119°05'5 8.6
2018-Apr-21 13:56N 34°05' W 119°10'6 0.4
2018-Apr-20 21:54N 34°10' W 119°13'0 0.0
2018-Apr-20 11:16N 34°10' W 119°13'0 0.0
2018-Apr-20 10:49N 34°10' W 119°13'0 0.0
2018-Apr-20 09:58N 34°10' W 119°13'0 0.0
2018-Apr-20 09:16N 34°10' W 119°13'0 0.0
2018-Apr-20 08:58N 34°10' W 119°13'0 0.0
2018-Apr-20 08:22N 34°10' W 119°13'0 0.0
2018-Apr-20 07:58N 34°10' W 119°13'0 0.0
2018-Apr-20 07:13N 34°10' W 119°13'0 0.0
2018-Apr-20 06:52N 34°10' W 119°13'0 0.0
2018-Apr-20 06:22N 34°10' W 119°13'0 0.0
2018-Apr-19 05:28N 34°10' W 119°13'0 0.0
2018-Apr-19 04:58N 34°10' W 119°13'0 0.0
2018-Apr-19 04:22N 34°10' W 119°13'0 0.0
2018-Apr-19 03:52N 34°10' W 119°13'0 0.0
2018-Apr-19 03:28N 34°10' W 119°13'0 0.0
2018-Apr-19 01:40N 34°10' W 119°13'0 0.0
2018-Apr-19 01:28N 34°10' W 119°13'0 0.0
2018-Apr-19 00:52N 34°10' W 119°13'0 0.0
2018-Apr-18 23:16N 34°10' W 119°13'0 0.0
2018-Apr-18 22:52N 34°10' W 119°13'1 1.6
2018-Apr-18 22:19N 34°09' W 119°14'5 7.9
2018-Apr-18 21:41N 34°06' W 119°19'9 1.6
2018-Apr-18 16:09N 34°02' W 119°28'1 1.4
2018-Apr-18 15:40N 34°02' W 119°28'0 0.2
2018-Apr-18 15:15N 34°02' W 119°28'  
2018-Apr-15 22:47N 34°10' W 119°13'0 0.0
2018-Apr-15 21:49N 34°10' W 119°13'6 5.5
2018-Apr-15 20:43N 34°06' W 119°08'5 0.7
2018-Apr-15 13:25N 34°08' W 119°13'1 0.7
2018-Apr-15 11:17N 34°10' W 119°13'0 0.0
2018-Apr-15 10:47N 34°10' W 119°13'0 0.0
2018-Apr-15 09:14N 34°10' W 119°13'0 0.0
2018-Apr-15 08:41N 34°10' W 119°13'0 0.0
2018-Apr-15 03:59N 34°10' W 119°13'0 0.0
2018-Apr-15 03:08N 34°10' W 119°13'0 0.0
2018-Apr-15 01:50N 34°10' W 119°13'0 0.0
2018-Apr-14 23:28N 34°10' W 119°13'1 1.8
2018-Apr-14 22:59N 34°09' W 119°14'4 6.8
2018-Apr-14 22:28N 34°06' W 119°11'4 7.7
2018-Apr-14 22:00N 34°04' W 119°08'4 7.7
2018-Apr-14 21:27N 34°01' W 119°04'2 1.9
2018-Apr-14 20:28N 34°01' W 119°02'24 0.9
2018-Apr-13 18:54N 33°59' W 119°31'  
Track history (hours):
 
Tides and Currents Weather Stations Pressure Air Temp Water Temp Dewpoint Dewpoint Depression Visibility Wind Speed Wind Dir Waves Ship Positions

Gentleman

Owner: CHANNEL ISLAND SPORTFISHING, OXNARD, CA. More information available from US FCC via Universal Licensing System and Coast Guard Vessel Documentation Center.

Last reported at 2018-Apr-23 18:19 UTC. Time now 2018-Apr-23 23:27 UTC.
Position N 34°10' W 119°13'.

Length 20 m.

Type: Passenger vessel. MMSI: 367362110.

Date/timePositionNaut miles runAvg speedWind from/ knotsBaromVisibWave heightAir tempDewpointWater temp
2018-Apr-23 18:19N 34°10' W 119°13'0 0.0
2018-Apr-23 16:27N 34°10' W 119°13'0 0.0
2018-Apr-23 14:00N 34°10' W 119°13'0 0.0
2018-Apr-23 13:27N 34°10' W 119°13'0 0.0
2018-Apr-22 23:00N 34°10' W 119°13'1 2.5
2018-Apr-22 22:29N 34°09' W 119°13'4 7.5
2018-Apr-22 22:00N 34°06' W 119°10'4 7.3
2018-Apr-22 21:28N 34°04' W 119°06'6 4.1
2018-Apr-22 20:04N 34°00' W 119°00'1 0.3
2018-Apr-22 17:25N 33°60' W 119°01'2 2.0
2018-Apr-22 16:29N 34°00' W 119°03'0 0.5
2018-Apr-22 15:54N 33°60' W 119°03'0 0.2
2018-Apr-22 14:45N 33°60' W 119°03'5 7.6
2018-Apr-22 14:08N 34°03' W 119°07'2 8.4
2018-Apr-22 13:51N 34°05' W 119°09'3 8.6
2018-Apr-22 13:30N 34°07' W 119°12'3 0.4
2018-Apr-22 05:29N 34°10' W 119°13'0 0.0
2018-Apr-22 04:56N 34°10' W 119°13'0 0.0
2018-Apr-22 04:11N 34°10' W 119°13'0 0.0
2018-Apr-22 03:53N 34°10' W 119°13'0 0.0
2018-Apr-22 02:20N 34°10' W 119°13'0 0.0
2018-Apr-21 23:17N 34°10' W 119°13'0 0.0
2018-Apr-21 22:56N 34°10' W 119°13'0 0.0
2018-Apr-21 22:29N 34°10' W 119°13'0 0.0
2018-Apr-21 21:24N 34°10' W 119°13'3 5.3
2018-Apr-21 20:46N 34°07' W 119°11'9 1.4
2018-Apr-21 14:38N 34°01' W 119°04'1 8.3
2018-Apr-21 14:29N 34°01' W 119°05'5 8.6
2018-Apr-21 13:56N 34°05' W 119°10'6 0.4
2018-Apr-20 21:54N 34°10' W 119°13'0 0.0
2018-Apr-20 11:16N 34°10' W 119°13'0 0.0
2018-Apr-20 10:49N 34°10' W 119°13'0 0.0
2018-Apr-20 09:58N 34°10' W 119°13'0 0.0
2018-Apr-20 09:16N 34°10' W 119°13'0 0.0
2018-Apr-20 08:58N 34°10' W 119°13'0 0.0
2018-Apr-20 08:22N 34°10' W 119°13'0 0.0
2018-Apr-20 07:58N 34°10' W 119°13'0 0.0
2018-Apr-20 07:13N 34°10' W 119°13'0 0.0
2018-Apr-20 06:52N 34°10' W 119°13'0 0.0
2018-Apr-20 06:22N 34°10' W 119°13'0 0.0
2018-Apr-19 05:28N 34°10' W 119°13'0 0.0
2018-Apr-19 04:58N 34°10' W 119°13'0 0.0
2018-Apr-19 04:22N 34°10' W 119°13'0 0.0
2018-Apr-19 03:52N 34°10' W 119°13'0 0.0
2018-Apr-19 03:28N 34°10' W 119°13'0 0.0
2018-Apr-19 01:40N 34°10' W 119°13'0 0.0
2018-Apr-19 01:28N 34°10' W 119°13'0 0.0
2018-Apr-19 00:52N 34°10' W 119°13'0 0.0
2018-Apr-18 23:16N 34°10' W 119°13'0 0.0
2018-Apr-18 22:52N 34°10' W 119°13'1 1.6
2018-Apr-18 22:19N 34°09' W 119°14'5 7.9
2018-Apr-18 21:41N 34°06' W 119°19'9 1.6
2018-Apr-18 16:09N 34°02' W 119°28'1 1.4
2018-Apr-18 15:40N 34°02' W 119°28'0 0.2
2018-Apr-18 15:15N 34°02' W 119°28'  
2018-Apr-15 22:47N 34°10' W 119°13'0 0.0
2018-Apr-15 21:49N 34°10' W 119°13'6 5.5
2018-Apr-15 20:43N 34°06' W 119°08'5 0.7
2018-Apr-15 13:25N 34°08' W 119°13'1 0.7
2018-Apr-15 11:17N 34°10' W 119°13'0 0.0
2018-Apr-15 10:47N 34°10' W 119°13'0 0.0
2018-Apr-15 09:14N 34°10' W 119°13'0 0.0
2018-Apr-15 08:41N 34°10' W 119°13'0 0.0
2018-Apr-15 03:59N 34°10' W 119°13'0 0.0
2018-Apr-15 03:08N 34°10' W 119°13'0 0.0
2018-Apr-15 01:50N 34°10' W 119°13'0 0.0
2018-Apr-14 23:28N 34°10' W 119°13'1 1.8
2018-Apr-14 22:59N 34°09' W 119°14'4 6.8
2018-Apr-14 22:28N 34°06' W 119°11'4 7.7
2018-Apr-14 22:00N 34°04' W 119°08'4 7.7
2018-Apr-14 21:27N 34°01' W 119°04'2 1.9
2018-Apr-14 20:28N 34°01' W 119°02'24 0.9
2018-Apr-13 18:54N 33°59' W 119°31'  

Dump ship's entire track history